Terminal Aerodrome Forecast
Issued by NWS

Home | Current Version | Previous Version | Text Only | Print | Product List | Glossary On
Versions: 1 2 3 4 5 6 7 8 9 10 11 12 13 14 15 16
000
FTUS44 KLZK 171100
TAFLIT
TAF
KLIT 171120Z 1712/1812 13004KT P6SM SKC
     FM171800 13007KT P6SM FEW050 SCT100 BKN250
     FM180000 13004KT P6SM SCT050 BKN100
     FM180600 00000KT P6SM SCT100 SCT250=

USA.gov is the U.S. government's official web portal to all federal, state and local government web resources and services.